Time;durP1;ratioP1;P1;durP2;ratioP2;P2;SDS_P1;SDS_P2;PMS_P1;PMS_P2;Temp;Humidity;BMP_temperature;BMP_pressure;BME280_temperature;BME280_humidity;BME280_pressure;Samples;Min_cycle;Max_cycle;Signal;HPM_P1;HPM_P2
2022/05/25 00:00:10;;;;;;;8.00;3.97;;;;;;;12.86;76.06;101252.66;5012754;28;20119;-76
2022/05/25 00:02:35;;;;;;;5.25;3.78;;;;;;;12.81;75.62;101264.59;5017084;28;20044;-75
2022/05/25 00:05:01;;;;;;;4.63;3.80;;;;;;;12.68;76.54;101268.56;5018422;28;20403;-75
2022/05/25 00:07:27;;;;;;;7.60;4.10;;;;;;;12.67;76.26;101266.81;5019444;28;20389;-76
2022/05/25 00:09:52;;;;;;;6.15;3.67;;;;;;;12.64;76.60;101277.06;5021387;28;20136;-75
2022/05/25 00:12:18;;;;;;;4.65;4.00;;;;;;;12.63;76.50;101279.59;5012751;28;20037;-75
2022/05/25 00:14:43;;;;;;;5.45;4.18;;;;;;;12.60;76.49;101275.22;5021358;28;20396;-78
2022/05/25 00:17:09;;;;;;;5.93;3.90;;;;;;;12.52;76.81;101276.75;5016192;28;20124;-75
2022/05/25 00:22:18;;;;;;;6.65;4.53;;;;;;;12.63;76.33;101271.88;5017071;28;20125;-75
2022/05/25 00:24:44;;;;;;;5.82;4.32;;;;;;;12.50;76.94;101273.25;5013161;28;20017;-75
2022/05/25 00:27:09;;;;;;;5.68;4.30;;;;;;;12.63;76.29;101284.78;5008335;28;20034;-75
2022/05/25 00:29:36;;;;;;;5.93;4.57;;;;;;;12.57;76.90;101286.34;5013114;28;20400;-75
2022/05/25 00:32:03;;;;;;;9.02;4.60;;;;;;;12.60;76.57;101288.13;5010930;28;20032;-75
2022/05/25 00:34:29;;;;;;;8.07;4.43;;;;;;;12.57;76.38;101288.94;5018000;28;20042;-75
2022/05/25 00:36:54;;;;;;;8.40;4.78;;;;;;;12.52;76.41;101287.06;5015258;28;20515;-76
2022/05/25 00:39:23;;;;;;;9.05;5.20;;;;;;;12.48;76.91;101287.78;5013690;28;20033;-75
2022/05/25 00:41:50;;;;;;;6.45;5.10;;;;;;;12.40;76.92;101285.00;5016900;28;20040;-76
2022/05/25 00:44:15;;;;;;;8.40;5.00;;;;;;;12.44;76.71;101275.66;5012445;28;20680;-76
2022/05/25 00:46:41;;;;;;;7.40;5.28;;;;;;;12.39;77.10;101287.56;5012608;28;20046;-75
2022/05/25 00:49:12;;;;;;;5.85;5.25;;;;;;;12.42;77.54;101285.06;5013811;28;20021;-75
2022/05/25 00:51:49;;;;;;;7.88;5.20;;;;;;;12.45;76.95;101291.19;5012212;28;20044;-75
2022/05/25 00:54:19;;;;;;;8.27;5.40;;;;;;;12.42;77.36;101283.34;5013071;28;20317;-75
2022/05/25 00:56:48;;;;;;;9.30;5.57;;;;;;;12.39;77.33;101284.97;5018902;28;20033;-75
2022/05/25 00:59:20;;;;;;;7.13;5.68;;;;;;;12.49;77.37;101297.28;5016434;28;20036;-75
2022/05/25 01:01:45;;;;;;;8.32;5.95;;;;;;;12.43;77.19;101294.53;5020510;28;20588;-75
2022/05/25 01:04:12;;;;;;;10.90;5.65;;;;;;;12.33;77.33;101294.28;5007607;28;20037;-75
2022/05/25 01:06:59;;;;;;;8.45;6.00;;;;;;;12.42;77.12;101303.97;5013108;28;20025;-75
2022/05/25 01:09:36;;;;;;;10.32;6.20;;;;;;;12.33;77.70;101303.75;5010912;28;20068;-75
2022/05/25 01:12:10;;;;;;;9.20;6.05;;;;;;;12.38;77.29;101303.84;5015329;28;20033;-75
2022/05/25 01:14:38;;;;;;;7.28;6.00;;;;;;;12.26;77.89;101301.81;5012934;28;20033;-75
2022/05/25 01:17:25;;;;;;;9.30;6.32;;;;;;;12.28;77.59;101301.03;5014811;28;20044;-75
2022/05/25 01:20:15;;;;;;;8.43;6.45;;;;;;;12.28;77.55;101295.88;5013662;28;20783;-75
2022/05/25 01:23:17;;;;;;;8.38;6.20;;;;;;;12.27;77.41;101301.84;5011200;28;20037;-75
2022/05/25 01:26:16;;;;;;;9.57;6.43;;;;;;;12.29;77.32;101313.06;5015727;28;20037;-75
2022/05/25 01:29:00;;;;;;;7.55;5.93;;;;;;;12.33;77.13;101309.75;5013796;28;20037;-75
2022/05/25 01:31:52;;;;;;;10.35;6.82;;;;;;;12.27;77.46;101299.28;5012447;28;20034;-75
2022/05/25 01:34:45;;;;;;;10.10;7.05;;;;;;;12.31;77.17;101316.56;5014155;28;20110;-75
2022/05/25 01:37:16;;;;;;;10.48;7.03;;;;;;;12.21;77.90;101311.13;5013004;28;20061;-75
2022/05/25 01:39:52;;;;;;;9.60;7.03;;;;;;;12.23;77.95;101312.03;5012766;28;20032;-74
2022/05/25 01:42:34;;;;;;;8.50;7.25;;;;;;;12.23;77.50;101315.47;5009704;28;20160;-75
2022/05/25 01:45:05;;;;;;;9.70;7.43;;;;;;;12.21;78.00;101309.41;5010687;28;20072;-75
2022/05/25 01:47:33;;;;;;;11.00;7.45;;;;;;;12.08;78.22;101309.91;5013498;28;20087;-75
2022/05/25 01:50:04;;;;;;;10.20;8.02;;;;;;;12.15;78.00;101316.09;5013319;28;20044;-77
2022/05/25 01:52:37;;;;;;;8.77;7.60;;;;;;;12.16;78.25;101312.69;5022883;28;20376;-77
2022/05/25 01:55:07;;;;;;;9.80;7.75;;;;;;;12.14;78.04;101315.22;5019268;28;20033;-78
2022/05/25 01:57:37;;;;;;;11.73;7.40;;;;;;;12.09;78.63;101324.53;5019077;28;20038;-76
2022/05/25 02:00:06;;;;;;;11.35;7.75;;;;;;;12.15;78.16;101323.84;5018997;28;20112;-77
2022/05/25 02:05:18;;;;;;;9.23;7.53;;;;;;;12.05;78.48;101320.09;5020704;28;20041;-78
2022/05/25 02:07:49;;;;;;;8.55;6.75;;;;;;;12.08;78.31;101326.25;5011689;28;20506;-77
2022/05/25 02:10:53;;;;;;;9.82;7.45;;;;;;;12.07;78.34;101321.91;5008958;28;20058;-76
2022/05/25 02:13:27;;;;;;;8.98;7.22;;;;;;;12.05;78.27;101318.41;5014053;28;20430;-79
2022/05/25 02:16:01;;;;;;;10.40;7.40;;;;;;;11.95;79.03;101318.97;5012563;28;20045;-76
2022/05/25 02:18:43;;;;;;;12.52;7.65;;;;;;;12.00;78.56;101322.53;5010575;28;20037;-77
2022/05/25 02:21:38;;;;;;;10.88;7.10;;;;;;;12.00;78.51;101324.25;5009400;28;20068;-78
2022/05/25 02:24:12;;;;;;;10.55;7.55;;;;;;;12.01;78.88;101321.75;5013888;28;20065;-78
2022/05/25 02:26:50;;;;;;;9.80;7.25;;;;;;;12.02;78.73;101320.03;5011432;28;20037;-78
2022/05/25 02:29:34;;;;;;;11.48;7.25;;;;;;;11.99;78.90;101322.50;5010386;28;20152;-77
2022/05/25 02:32:09;;;;;;;9.98;7.18;;;;;;;12.00;78.75;101331.97;5015371;28;20071;-78
2022/05/25 02:34:39;;;;;;;9.88;7.03;;;;;;;12.01;78.72;101332.06;5017853;28;20247;-76
2022/05/25 02:37:05;;;;;;;9.93;6.93;;;;;;;11.95;78.71;101329.28;5018502;28;20033;-78
2022/05/25 02:39:30;;;;;;;9.40;7.03;;;;;;;11.97;78.76;101332.78;5010390;28;20251;-78
2022/05/25 02:41:56;;;;;;;10.63;7.75;;;;;;;11.92;78.46;101334.34;5011435;28;20685;-78
2022/05/25 02:44:22;;;;;;;9.10;7.28;;;;;;;12.00;78.31;101339.72;5010913;28;20369;-78
2022/05/25 02:46:48;;;;;;;9.98;7.43;;;;;;;11.95;78.36;101342.19;5014894;28;20804;-76
2022/05/25 02:49:15;;;;;;;9.38;7.22;;;;;;;11.90;78.57;101346.31;5014805;28;20067;-78
2022/05/25 02:51:40;;;;;;;9.20;6.97;;;;;;;11.90;78.74;101353.19;5013855;28;20459;-77
2022/05/25 02:54:07;;;;;;;11.52;6.70;;;;;;;11.95;78.32;101346.44;5013219;28;20029;-75
2022/05/25 02:56:33;;;;;;;11.32;7.00;;;;;;;11.93;78.41;101340.38;5012191;28;20061;-75
2022/05/25 02:58:58;;;;;;;10.82;7.00;;;;;;;11.87;78.52;101355.63;5008005;28;20391;-75
2022/05/25 03:01:24;;;;;;;7.40;6.57;;;;;;;11.87;78.25;101348.78;5034565;28;20048;-79
2022/05/25 03:03:50;;;;;;;7.57;6.30;;;;;;;11.89;78.35;101351.41;5015797;28;20021;-78
2022/05/25 03:06:16;;;;;;;11.52;6.05;;;;;;;11.81;78.73;101362.34;5010453;28;20043;-78
2022/05/25 03:08:41;;;;;;;9.48;6.22;;;;;;;11.87;77.98;101365.94;5018698;28;20017;-79
2022/05/25 03:11:08;;;;;;;9.63;5.50;;;;;;;11.84;78.34;101360.72;5012549;28;20045;-77
2022/05/25 03:13:35;;;;;;;7.03;5.80;;;;;;;11.85;78.39;101363.34;5015095;28;20029;-80
2022/05/25 03:16:02;;;;;;;12.15;5.40;;;;;;;11.81;78.23;101361.47;5010606;28;20648;-76
2022/05/25 03:18:28;;;;;;;9.35;5.55;;;;;;;11.78;78.44;101367.38;5011227;28;20827;-75
2022/05/25 03:20:54;;;;;;;8.30;5.85;;;;;;;11.74;77.95;101362.97;5002960;28;20038;-75
2022/05/25 03:23:19;;;;;;;7.95;5.35;;;;;;;11.75;78.44;101366.41;5018562;28;20092;-79
2022/05/25 03:25:46;;;;;;;7.88;5.00;;;;;;;11.78;78.19;101363.94;5020010;28;20026;-80
2022/05/25 03:28:12;;;;;;;7.85;5.30;;;;;;;11.76;77.99;101369.03;5018421;28;20034;-79
2022/05/25 03:30:37;;;;;;;10.25;5.40;;;;;;;11.73;78.15;101371.53;5015202;28;20135;-76
2022/05/25 03:33:03;;;;;;;7.03;4.90;;;;;;;11.77;78.22;101370.81;5020711;28;20544;-78
2022/05/25 03:35:29;;;;;;;7.90;4.47;;;;;;;11.72;78.42;101372.34;5015129;28;20035;-78
2022/05/25 03:37:54;;;;;;;7.55;4.97;;;;;;;11.69;78.16;101373.94;5016714;28;20128;-77
2022/05/25 03:40:20;;;;;;;7.63;4.78;;;;;;;11.68;78.40;101373.06;5017482;28;20052;-79
2022/05/25 03:42:47;;;;;;;10.35;5.28;;;;;;;11.69;78.25;101376.53;5011393;28;20037;-75
2022/05/25 03:45:15;;;;;;;8.13;4.72;;;;;;;11.65;78.18;101383.28;5006940;28;20052;-75
2022/05/25 03:47:41;;;;;;;9.87;4.97;;;;;;;11.66;78.55;101391.91;5015245;28;20526;-79
2022/05/25 03:50:08;;;;;;;8.98;4.78;;;;;;;11.60;78.55;101387.41;5014042;28;20037;-79
2022/05/25 03:52:33;;;;;;;7.85;4.97;;;;;;;11.55;78.71;101386.38;5006751;28;20022;-79
2022/05/25 03:54:59;;;;;;;10.40;5.03;;;;;;;11.58;78.85;101388.19;5011182;28;20057;-79
2022/05/25 03:57:24;;;;;;;8.98;4.63;;;;;;;11.53;78.75;101390.63;5012945;28;20025;-79
2022/05/25 03:59:50;;;;;;;8.48;4.68;;;;;;;11.58;78.56;101394.19;5014440;28;20131;-78
2022/05/25 04:02:15;;;;;;;7.50;4.78;;;;;;;11.60;78.33;101392.56;5011699;28;20034;-75
2022/05/25 04:04:41;;;;;;;8.52;4.60;;;;;;;11.50;78.89;101395.66;5020618;28;20496;-74
2022/05/25 04:07:06;;;;;;;8.05;4.15;;;;;;;11.52;78.85;101400.03;5017139;28;21830;-79
2022/05/25 04:09:32;;;;;;;7.47;4.20;;;;;;;11.50;78.76;101404.25;4975151;28;1136682;-78
2022/05/25 04:11:57;;;;;;;5.85;4.22;;;;;;;11.49;79.17;101404.22;5014076;28;22366;-79
2022/05/25 04:14:23;;;;;;;9.40;4.20;;;;;;;11.48;78.99;101411.06;5015831;28;20048;-80
2022/05/25 04:16:49;;;;;;;8.15;3.75;;;;;;;11.51;79.04;101405.13;5017786;28;20037;-79
2022/05/25 04:19:15;;;;;;;8.43;4.30;;;;;;;11.50;79.12;101409.41;5014079;28;20029;-77
2022/05/25 04:21:41;;;;;;;7.07;4.03;;;;;;;11.58;79.21;101408.78;5016282;28;20048;-79
2022/05/25 04:24:07;;;;;;;6.65;4.00;;;;;;;11.58;78.74;101408.78;5013163;28;20080;-78
2022/05/25 04:26:33;;;;;;;7.68;4.05;;;;;;;11.55;78.74;101409.56;5025143;28;20391;-77
2022/05/25 04:29:02;;;;;;;7.03;3.92;;;;;;;11.53;79.14;101404.38;5009688;28;20084;-79
2022/05/25 04:31:28;;;;;;;;;;;;;;;11.77;77.91;101406.88;5012523;28;20037;-80
2022/05/25 04:33:54;;;;;;;7.03;3.30;;;;;;;11.58;78.94;101404.50;5009258;28;19950;-78
2022/05/25 04:36:19;;;;;;;9.57;3.90;;;;;;;11.60;79.19;101418.31;5015443;28;20151;-79
2022/05/25 04:38:46;;;;;;;10.38;3.55;;;;;;;11.62;79.10;101413.22;5004789;28;20121;-77
2022/05/25 04:41:11;;;;;;;6.68;3.33;;;;;;;11.64;79.03;101419.28;5010221;28;20036;-79
2022/05/25 04:43:37;;;;;;;7.07;3.65;;;;;;;11.61;79.47;101412.34;5015149;28;20033;-76
2022/05/25 04:46:11;;;;;;;9.02;4.07;;;;;;;11.70;79.17;101422.06;5008930;28;20037;-75
2022/05/25 04:48:37;;;;;;;8.88;3.65;;;;;;;11.68;79.33;101419.44;5014930;28;20116;-75
2022/05/25 04:51:03;;;;;;;9.30;3.70;;;;;;;11.69;79.64;101418.59;5016060;28;20519;-75
2022/05/25 04:53:29;;;;;;;7.30;3.40;;;;;;;11.73;79.35;101415.31;5018201;28;20391;-75
2022/05/25 04:58:42;;;;;;;7.65;3.80;;;;;;;11.80;79.85;101424.13;5020180;28;20051;-75
2022/05/25 05:01:10;;;;;;;7.07;3.92;;;;;;;11.77;79.60;101431.75;5023178;28;20108;-75
2022/05/25 05:03:37;;;;;;;9.73;4.30;;;;;;;11.85;79.67;101434.63;5018380;28;20103;-75
2022/05/25 05:06:07;;;;;;;9.23;4.13;;;;;;;11.84;79.76;101438.91;5018535;28;20511;-75
2022/05/25 05:08:33;;;;;;;9.68;4.30;;;;;;;11.91;79.73;101434.81;5024725;28;20043;-75
2022/05/25 05:11:09;;;;;;;8.13;4.20;;;;;;;11.99;79.57;101438.47;5023229;28;20045;-75
2022/05/25 05:13:35;;;;;;;11.68;4.05;;;;;;;11.99;80.15;101436.78;5023862;28;20198;-75
2022/05/25 05:16:07;;;;;;;8.88;4.82;;;;;;;12.06;79.35;101436.13;5022924;28;20488;-75
2022/05/25 05:18:33;;;;;;;8.30;4.28;;;;;;;12.05;79.91;101430.94;5019557;28;20672;-75
2022/05/25 05:20:58;;;;;;;9.88;4.75;;;;;;;12.12;79.80;101438.03;5013643;28;20036;-75
2022/05/25 05:23:24;;;;;;;11.35;4.07;;;;;;;12.15;79.76;101430.41;5021357;28;20038;-75
2022/05/25 05:25:49;;;;;;;9.77;4.25;;;;;;;12.18;80.12;101435.66;5013672;28;20504;-75
2022/05/25 05:28:19;;;;;;;9.50;4.50;;;;;;;12.25;79.79;101429.84;5014085;28;20037;-75
2022/05/25 05:30:51;;;;;;;8.52;4.38;;;;;;;12.30;79.54;101425.69;5017336;28;20599;-75
2022/05/25 05:33:16;;;;;;;8.95;4.55;;;;;;;12.38;79.44;101425.03;5016677;28;20063;-75
2022/05/25 05:35:48;;;;;;;10.27;4.78;;;;;;;12.38;79.32;101417.31;5017221;28;20120;-75
2022/05/25 05:38:16;;;;;;;7.43;4.13;;;;;;;12.45;79.12;101416.69;5020613;28;20127;-75
2022/05/25 05:40:42;;;;;;;9.20;4.80;;;;;;;12.47;78.97;101410.72;5019104;28;20029;-75
2022/05/25 05:43:09;;;;;;;9.63;4.20;;;;;;;12.54;79.16;101412.66;5022217;28;20041;-76
2022/05/25 05:45:38;;;;;;;8.57;4.15;;;;;;;12.60;79.62;101406.78;5020517;28;20061;-76
2022/05/25 05:48:13;;;;;;;;;;;;;;;12.79;78.55;101413.34;5022139;28;20034;-76
2022/05/25 05:50:40;;;;;;;9.80;4.40;;;;;;;12.73;78.99;101408.88;5021930;28;19921;-75
2022/05/25 05:53:08;;;;;;;9.00;4.70;;;;;;;12.82;78.69;101405.69;5017622;28;20683;-76
2022/05/25 05:55:36;;;;;;;10.33;4.43;;;;;;;12.86;78.39;101413.56;5019974;28;20087;-75
2022/05/25 05:58:02;;;;;;;10.45;4.47;;;;;;;12.93;78.50;101418.91;5023582;28;20280;-75
2022/05/25 06:00:27;;;;;;;8.85;4.45;;;;;;;12.93;77.99;101418.91;5016462;28;20508;-75
2022/05/25 06:02:53;;;;;;;10.05;4.60;;;;;;;13.06;78.03;101426.16;5015003;28;20506;-75
2022/05/25 06:05:18;;;;;;;9.60;4.90;;;;;;;13.14;77.96;101422.03;5009733;28;20152;-75
2022/05/25 06:07:43;;;;;;;10.18;4.57;;;;;;;13.18;77.23;101423.00;5014915;28;20084;-75
2022/05/25 06:10:10;;;;;;;11.10;5.15;;;;;;;13.24;77.28;101423.22;5008908;28;20062;-76
2022/05/25 06:12:36;;;;;;;8.90;5.22;;;;;;;13.28;77.32;101431.06;5012739;28;20085;-75
2022/05/25 06:19:25;;;;;;;8.40;5.45;;;;;;;13.34;76.88;101430.34;5024659;28;20123;-76
2022/05/25 06:20:34;;;;;;;12.15;5.00;;;;;;;13.45;77.07;101436.66;5015329;28;20435;-75
2022/05/25 06:22:59;;;;;;;13.43;5.60;;;;;;;13.47;76.92;101434.09;5013605;28;20033;-75
2022/05/25 06:25:25;;;;;;;10.60;5.38;;;;;;;13.57;77.11;101442.13;5012884;28;20029;-75
2022/05/25 06:27:50;;;;;;;12.85;6.15;;;;;;;13.62;76.30;101450.00;5017581;28;20029;-75
2022/05/25 06:30:15;;;;;;;9.60;5.70;;;;;;;13.69;77.62;101450.19;5024737;28;20072;-75
2022/05/25 06:32:41;;;;;;;12.43;5.65;;;;;;;13.76;77.05;101452.91;5021527;28;20030;-75
2022/05/25 06:35:07;;;;;;;13.07;5.72;;;;;;;13.83;77.18;101455.72;5019244;28;20120;-75
2022/05/25 06:37:32;;;;;;;9.70;6.05;;;;;;;13.87;76.67;101454.94;5017164;28;20059;-75
2022/05/25 06:39:57;;;;;;;10.57;6.97;;;;;;;13.92;76.50;101461.09;5020443;28;20075;-75
2022/05/25 06:42:23;;;;;;;13.27;6.75;;;;;;;13.91;76.48;101461.06;5025263;28;20021;-75
2022/05/25 06:44:48;;;;;;;15.23;7.65;;;;;;;13.99;76.24;101456.94;5023508;28;20403;-75
2022/05/25 06:47:18;;;;;;;13.25;9.00;;;;;;;14.00;75.26;101460.41;5017991;28;21894;-75
2022/05/25 06:49:44;;;;;;;16.67;9.52;;;;;;;14.05;75.43;101463.97;5019239;28;20571;-75
2022/05/25 06:52:12;;;;;;;17.25;11.93;;;;;;;13.93;75.12;101475.75;5019144;28;20111;-75
2022/05/25 06:54:43;;;;;;;16.38;11.25;;;;;;;13.93;74.99;101470.59;5021712;28;20482;-75
2022/05/25 06:57:08;;;;;;;16.60;11.30;;;;;;;13.91;75.81;101480.03;5022156;28;20494;-74
2022/05/25 06:59:34;;;;;;;19.25;12.05;;;;;;;13.95;75.90;101478.38;5033567;28;20025;-74
2022/05/25 07:01:59;;;;;;;15.80;12.73;;;;;;;13.97;76.14;101476.72;5024222;28;20084;-75
2022/05/25 07:04:25;;;;;;;16.52;12.93;;;;;;;14.05;75.90;101471.72;5022328;28;20061;-75
2022/05/25 07:06:50;;;;;;;17.08;11.50;;;;;;;14.15;75.58;101478.88;5018278;28;20037;-75
2022/05/25 07:09:16;;;;;;;16.98;12.73;;;;;;;14.15;75.39;101474.56;5011914;28;20053;-75
2022/05/25 07:11:42;;;;;;;18.25;13.10;;;;;;;14.27;76.09;101484.31;5016506;28;20034;-75
2022/05/25 07:14:09;;;;;;;16.20;13.40;;;;;;;14.42;76.53;101486.38;5023190;28;20479;-74
2022/05/25 07:16:35;;;;;;;16.83;12.60;;;;;;;14.44;74.26;101495.94;5019127;28;20033;-75
2022/05/25 07:19:00;;;;;;;19.20;12.98;;;;;;;14.48;74.43;101499.47;5017812;28;20055;-75
2022/05/25 07:21:28;;;;;;;18.52;12.35;;;;;;;14.55;74.38;101492.72;5020491;28;20369;-75
2022/05/25 07:23:55;;;;;;;16.85;12.82;;;;;;;14.71;74.59;101492.22;5019275;28;20112;-74
2022/05/25 07:26:22;;;;;;;18.23;14.93;;;;;;;14.83;74.42;101507.13;5018403;28;20488;-75
2022/05/25 07:28:49;;;;;;;19.25;14.50;;;;;;;14.96;74.23;101515.19;5020129;28;20025;-77
2022/05/25 07:31:23;;;;;;;18.10;13.82;;;;;;;15.03;73.47;101506.69;5003332;28;20887;-78
2022/05/25 07:34:06;;;;;;;17.90;13.25;;;;;;;15.08;73.08;101505.91;5019226;28;20101;-77
2022/05/25 07:36:35;;;;;;;18.13;12.60;;;;;;;15.07;72.58;101506.75;5015643;28;20017;-77
2022/05/25 07:39:04;;;;;;;24.05;13.00;;;;;;;14.97;72.97;101503.97;5014930;28;20120;-78
2022/05/25 07:41:31;;;;;;;15.52;11.90;;;;;;;14.93;73.02;101501.31;5021405;28;20120;-77
2022/05/25 07:43:58;;;;;;;18.00;11.40;;;;;;;14.96;72.75;101514.31;5020175;28;20036;-78
2022/05/25 07:46:29;;;;;;;15.27;10.63;;;;;;;15.00;73.34;101503.19;5013876;28;20045;-78
2022/05/25 07:48:55;;;;;;;12.88;10.63;;;;;;;14.99;74.08;101504.03;5019292;28;20042;-78
2022/05/25 07:51:22;;;;;;;18.27;10.32;;;;;;;15.07;73.33;101510.22;5027103;28;20041;-77
2022/05/25 07:53:56;;;;;;;14.48;11.10;;;;;;;15.09;73.26;101508.53;5027422;28;20465;-77
2022/05/25 07:56:29;;;;;;;18.27;10.80;;;;;;;15.08;72.29;101509.38;5019967;28;20105;-77
2022/05/25 07:58:55;;;;;;;16.77;11.65;;;;;;;15.06;72.58;101516.25;5024796;28;20035;-78
2022/05/25 08:05:43;;;;;;;18.40;10.88;;;;;;;15.09;72.24;101518.88;5009332;28;20116;-76
2022/05/25 08:06:54;;;;;;;14.80;8.95;;;;;;;15.41;72.47;101526.41;5027891;28;20111;-77
2022/05/25 08:09:20;;;;;;;14.75;8.65;;;;;;;15.54;71.87;101516.31;5022685;28;21761;-77
2022/05/25 08:11:45;;;;;;;13.65;8.10;;;;;;;15.63;72.33;101517.34;5025291;28;20049;-76
2022/05/25 08:14:11;;;;;;;11.88;7.40;;;;;;;15.79;71.63;101517.66;5027656;28;20053;-77
2022/05/25 08:16:36;;;;;;;13.05;7.53;;;;;;;15.86;71.39;101521.22;5024093;28;20027;-76
2022/05/25 08:19:02;;;;;;;13.40;7.60;;;;;;;15.87;70.50;101524.69;5022272;28;20045;-77
2022/05/25 08:21:53;;;;;;;10.20;6.47;;;;;;;15.95;70.95;101516.16;5017732;28;20032;-77
2022/05/25 08:24:19;;;;;;;12.20;6.65;;;;;;;15.99;69.68;101535.25;5014921;28;20155;-76
2022/05/25 08:26:47;;;;;;;8.35;6.63;;;;;;;15.95;69.65;101531.72;5020863;28;20094;-77
2022/05/25 08:29:13;;;;;;;9.88;5.82;;;;;;;16.01;70.28;101524.03;5022865;28;20473;-76
2022/05/25 08:31:38;;;;;;;10.48;5.40;;;;;;;16.03;69.19;101517.19;5021423;28;20112;-76
2022/05/25 08:34:05;;;;;;;8.48;5.38;;;;;;;16.14;69.64;101516.47;5018264;28;20036;-75
2022/05/25 08:36:31;;;;;;;7.20;5.30;;;;;;;16.21;69.34;101515.72;5026962;28;20037;-76
2022/05/25 08:38:56;;;;;;;10.63;4.93;;;;;;;16.25;68.52;101508.00;5018328;28;20030;-75
2022/05/25 08:41:35;;;;;;;7.05;4.50;;;;;;;16.41;68.92;101516.88;5023156;28;20037;-76
2022/05/25 08:44:02;;;;;;;6.37;4.13;;;;;;;16.47;67.13;101514.38;5018397;28;20065;-75
2022/05/25 08:46:30;;;;;;;6.28;3.42;;;;;;;16.56;66.88;101514.53;5018525;28;20297;-76
2022/05/25 08:48:58;;;;;;;8.85;3.83;;;;;;;16.69;67.57;101504.31;5023473;28;20033;-76
2022/05/25 08:51:25;;;;;;;7.80;3.73;;;;;;;16.73;67.19;101512.16;5028976;28;20025;-76
2022/05/25 08:53:52;;;;;;;6.40;3.20;;;;;;;16.88;67.78;101508.91;5024188;28;20047;-76
2022/05/25 08:56:37;;;;;;;6.00;3.13;;;;;;;16.95;67.87;101500.34;5024073;28;20025;-75
2022/05/25 08:59:08;;;;;;;5.95;3.15;;;;;;;16.92;66.22;101502.88;5023196;28;20033;-75
2022/05/25 09:01:43;;;;;;;6.47;3.20;;;;;;;17.01;65.19;101502.13;5024035;28;20037;-76
2022/05/25 09:04:38;;;;;;;5.97;2.78;;;;;;;17.17;65.58;101498.88;5020746;28;20029;-76
2022/05/25 09:07:48;;;;;;;6.90;2.63;;;;;;;17.34;66.43;101501.63;5004724;28;20042;-76
2022/05/25 09:10:15;;;;;;;7.35;3.20;;;;;;;17.43;65.28;101501.72;4981686;28;20649;-74
2022/05/25 09:12:49;;;;;;;6.32;2.75;;;;;;;17.56;64.62;101502.72;4979659;28;20061;-72
2022/05/25 09:15:24;;;;;;;5.43;2.00;;;;;;;17.75;65.32;101507.25;5002720;28;20039;-75
2022/05/25 09:18:09;;;;;;;4.18;2.05;;;;;;;17.81;64.51;101509.03;5017705;28;20038;-84
2022/05/25 09:20:44;;;;;;;5.25;2.00;;;;;;;17.79;60.88;101508.16;5021464;28;20406;-78
2022/05/25 09:23:13;;;;;;;5.55;1.98;;;;;;;17.87;61.85;101503.91;5021461;28;20086;-81
2022/05/25 09:25:39;;;;;;;4.18;1.80;;;;;;;17.75;58.79;101509.84;5023783;28;20029;-81
2022/05/25 09:28:16;;;;;;;3.88;1.60;;;;;;;17.78;60.80;101514.25;5024118;28;20034;-79
2022/05/25 09:30:45;;;;;;;5.25;1.65;;;;;;;17.77;58.96;101515.94;5021232;28;20087;-80
2022/05/25 09:33:27;;;;;;;3.70;1.65;;;;;;;17.93;59.54;101524.75;5023521;28;20034;-80
2022/05/25 09:36:04;;;;;;;6.80;1.40;;;;;;;18.09;59.06;101515.34;5020243;28;20029;-80
2022/05/25 09:38:32;;;;;;;4.00;1.33;;;;;;;18.11;59.70;101514.50;5026716;28;20040;-82
2022/05/25 09:41:05;;;;;;;6.22;1.70;;;;;;;18.05;58.82;101524.00;5023555;28;20108;-78
2022/05/25 09:43:31;;;;;;;8.15;1.50;;;;;;;17.94;58.01;101521.28;5019159;28;20040;-75
2022/05/25 09:46:05;;;;;;;6.43;1.45;;;;;;;17.90;57.38;101532.56;5019323;28;20528;-76
2022/05/25 09:48:35;;;;;;;6.38;1.50;;;;;;;18.08;58.03;101521.41;5015205;28;20036;-75
2022/05/25 09:51:17;;;;;;;3.20;1.20;;;;;;;18.27;59.13;101522.44;5025045;28;20771;-75
2022/05/25 09:53:51;;;;;;;7.75;1.77;;;;;;;18.46;57.11;101516.47;5025447;28;21765;-75
2022/05/25 09:56:32;;;;;;;4.90;2.05;;;;;;;18.54;56.13;101529.53;5028089;28;20021;-75
2022/05/25 09:59:06;;;;;;;5.20;1.70;;;;;;;18.47;53.93;101532.09;5017869;28;20533;-76
2022/05/25 10:01:41;;;;;;;4.90;1.75;;;;;;;18.36;54.01;101536.34;5021776;28;20052;-74
2022/05/25 10:04:09;;;;;;;4.10;1.60;;;;;;;18.21;53.93;101531.06;5020327;28;20037;-73
2022/05/25 10:06:49;;;;;;;4.82;2.00;;;;;;;18.21;55.94;101525.84;5021067;28;20048;-73
2022/05/25 10:09:32;;;;;;;3.13;2.15;;;;;;;18.14;55.51;101537.97;5019915;28;20112;-75
2022/05/25 10:12:00;;;;;;;3.90;2.38;;;;;;;18.13;53.98;101538.78;5029132;28;20536;-76
2022/05/25 10:14:33;;;;;;;5.93;1.92;;;;;;;18.37;55.13;101532.03;5016850;28;20033;-77
2022/05/25 10:17:11;;;;;;;3.03;1.83;;;;;;;18.51;54.82;101527.78;5012858;28;20036;-77
2022/05/25 10:19:52;;;;;;;3.47;1.80;;;;;;;18.67;54.14;101523.56;5018792;28;20027;-73
2022/05/25 10:22:33;;;;;;;2.60;1.67;;;;;;;18.86;55.29;101527.97;5019389;28;20021;-79
2022/05/25 10:25:23;;;;;;;3.13;1.70;;;;;;;18.92;54.18;101529.75;5020106;28;20892;-82
2022/05/25 10:27:49;;;;;;;3.03;1.67;;;;;;;18.88;51.93;101530.63;5017081;28;20033;-82
2022/05/25 10:39:32;;;;;;;3.10;1.20;;;;;;;19.08;51.44;101508.09;5024014;28;20048;-82
2022/05/25 10:42:03;;;;;;;4.50;1.25;;;;;;;19.17;50.00;101502.94;5023468;28;20036;-80
2022/05/25 10:44:55;;;;;;;3.05;1.10;;;;;;;19.38;52.14;101498.63;5026095;28;20033;-76
2022/05/25 10:47:41;;;;;;;2.38;0.90;;;;;;;19.59;51.20;101509.09;5020071;28;20179;-74
2022/05/25 10:50:35;;;;;;;2.00;0.85;;;;;;;19.77;48.96;101509.13;5016512;28;20044;-75
2022/05/25 10:53:00;;;;;;;3.28;0.80;;;;;;;19.71;46.90;101522.16;5022503;28;20025;-75
2022/05/25 10:55:34;;;;;;;2.53;0.80;;;;;;;19.86;47.75;101507.41;5019426;28;20029;-78
2022/05/25 10:58:37;;;;;;;4.28;0.80;;;;;;;19.96;49.77;101511.72;5021767;28;20033;-78
2022/05/25 11:01:24;;;;;;;2.08;0.70;;;;;;;20.02;49.74;101501.28;5019661;28;20033;-83
2022/05/25 11:04:29;;;;;;;2.30;0.68;;;;;;;20.09;50.42;101505.66;5019891;28;20860;-74
2022/05/25 11:07:18;;;;;;;4.68;1.13;;;;;;;20.19;50.13;101507.38;5016885;28;20490;-74
2022/05/25 11:09:43;;;;;;;;;;;;;;;20.28;49.95;101509.97;5018721;28;20087;-74
2022/05/25 11:12:33;;;;;;;5.13;0.80;;;;;;;20.21;48.02;101513.47;5020504;28;20367;-74
2022/05/25 11:15:23;;;;;;;2.65;0.70;;;;;;;20.20;47.73;101514.31;5018683;28;20599;-75
2022/05/25 11:18:19;;;;;;;1.70;0.60;;;;;;;20.18;47.75;101508.25;5017577;28;20029;-74
2022/05/25 11:21:09;;;;;;;5.72;0.77;;;;;;;20.19;48.13;101502.16;5017994;28;20061;-74
2022/05/25 11:23:59;;;;;;;3.00;0.60;;;;;;;20.07;47.49;101500.41;5027869;28;20029;-74
2022/05/25 11:26:42;;;;;;;5.45;1.00;;;;;;;20.11;46.14;101493.47;5024609;28;20350;-74
2022/05/25 11:29:23;;;;;;;3.85;0.70;;;;;;;20.03;47.02;101497.84;5024618;28;20037;-74
2022/05/25 11:32:13;;;;;;;3.70;0.70;;;;;;;20.01;46.49;101484.75;5020849;28;20021;-74
2022/05/25 11:34:38;;;;;;;3.05;0.82;;;;;;;20.06;44.92;101492.59;5028286;28;20128;-74
2022/05/25 11:37:37;;;;;;;3.63;0.68;;;;;;;20.21;46.53;101495.19;5028866;28;20531;-74
2022/05/25 11:40:09;;;;;;;;;;;;;;;20.24;45.12;101500.41;5028482;28;20133;-74
2022/05/25 11:42:34;;;;;;;3.45;0.60;;;;;;;20.00;43.32;101492.59;5028221;28;20431;-74
2022/05/25 11:45:13;;;;;;;2.63;0.77;;;;;;;19.87;43.02;101496.97;5021227;28;20125;-75
2022/05/25 11:48:00;;;;;;;4.22;0.77;;;;;;;19.76;45.38;101498.69;5027825;28;20032;-74
2022/05/25 11:50:39;;;;;;;4.38;0.68;;;;;;;19.88;45.87;101498.69;5025235;28;20029;-74
2022/05/25 11:53:18;;;;;;;2.85;0.98;;;;;;;19.94;45.58;101485.63;5027309;28;20219;-74
2022/05/25 11:56:28;;;;;;;2.05;0.60;;;;;;;20.06;46.70;101497.81;5024089;28;20484;-74
2022/05/25 11:59:16;;;;;;;3.38;0.88;;;;;;;19.97;45.72;101492.63;5023802;28;20044;-74
2022/05/25 12:01:45;;;;;;;5.05;0.70;;;;;;;19.73;45.88;101501.31;5026161;28;20035;-73
2022/05/25 12:04:22;;;;;;;3.80;0.70;;;;;;;19.68;46.10;101511.75;5018934;28;20026;-74